createdAt,value
2023-04-04T00:00:26.102Z,0
2023-04-04T00:01:26.715Z,0
2023-04-04T00:02:27.390Z,0
2023-04-04T00:03:28.097Z,0
2023-04-04T00:04:28.763Z,0
2023-04-04T00:05:29.308Z,0
2023-04-04T00:06:29.914Z,0
2023-04-04T00:07:30.520Z,0
2023-04-04T00:08:31.100Z,0
2023-04-04T00:09:31.712Z,0
2023-04-04T00:10:32.313Z,0
2023-04-04T00:11:32.909Z,0
2023-04-04T00:12:33.516Z,0
2023-04-04T00:13:34.109Z,0
2023-04-04T00:14:34.724Z,0
2023-04-04T00:15:35.317Z,0
2023-04-04T00:16:35.940Z,0
2023-04-04T00:17:36.541Z,0
2023-04-04T00:18:37.094Z,0
2023-04-04T00:19:37.690Z,0
2023-04-04T00:20:38.646Z,0
2023-04-04T00:21:38.894Z,0
2023-04-04T00:22:39.479Z,0
2023-04-04T00:23:40.089Z,0
2023-04-04T00:24:40.677Z,0
2023-04-04T00:25:41.283Z,0
2023-04-04T00:26:41.883Z,0
2023-04-04T00:27:42.473Z,0
2023-04-04T00:28:43.060Z,0
2023-04-04T00:29:43.654Z,0
2023-04-04T00:30:44.249Z,0
2023-04-04T00:31:44.898Z,0
2023-04-04T00:32:45.572Z,0
2023-04-04T00:33:46.199Z,0
2023-04-04T00:34:46.847Z,0
2023-04-04T00:35:47.396Z,0
2023-04-04T00:36:47.980Z,0
2023-04-04T00:37:48.574Z,0
2023-04-04T00:38:49.167Z,0
2023-04-04T00:39:49.756Z,0
2023-04-04T00:40:50.378Z,0
2023-04-04T00:41:50.961Z,0
2023-04-04T00:42:51.550Z,0
2023-04-04T00:43:52.150Z,0
2023-04-04T00:44:52.738Z,0
2023-04-04T00:45:53.357Z,0
2023-04-04T00:46:53.919Z,0
2023-04-04T00:47:54.596Z,0
2023-04-04T00:48:55.228Z,0
2023-04-04T00:49:55.817Z,0
2023-04-04T00:50:56.428Z,0
2023-04-04T00:51:57.003Z,0
2023-04-04T00:52:57.665Z,0
2023-04-04T00:53:58.205Z,0
2023-04-04T00:54:58.809Z,0
2023-04-04T00:55:59.393Z,0
2023-04-04T00:57:00.003Z,0
2023-04-04T00:58:00.608Z,0
2023-04-04T00:59:01.215Z,0
2023-04-04T01:00:01.814Z,0
2023-04-04T01:01:02.483Z,0
2023-04-04T01:02:03.098Z,0
2023-04-04T01:03:03.737Z,0
2023-04-04T01:04:04.326Z,0
2023-04-04T01:05:04.919Z,0
2023-04-04T01:06:05.511Z,0
2023-04-04T01:07:06.103Z,0
2023-04-04T01:08:06.726Z,0
2023-04-04T01:09:07.308Z,0
2023-04-04T01:10:07.897Z,0
2023-04-04T01:11:08.495Z,0
2023-04-04T01:12:09.091Z,0
2023-04-04T01:13:09.690Z,0
2023-04-04T01:14:10.275Z,0
2023-04-04T01:15:10.904Z,0
2023-04-04T01:16:11.518Z,0
2023-04-04T01:17:12.079Z,0
2023-04-04T01:18:12.672Z,0
2023-04-04T01:19:13.265Z,0
2023-04-04T01:20:13.875Z,0
2023-04-04T01:21:14.472Z,0
2023-04-04T01:22:15.065Z,0
2023-04-04T01:23:15.656Z,0
2023-04-04T01:24:16.248Z,0
2023-04-04T01:25:16.845Z,0
2023-04-04T01:26:17.435Z,0
2023-04-04T01:27:18.056Z,0
2023-04-04T01:28:18.639Z,0
2023-04-04T01:29:19.239Z,0
2023-04-04T01:30:19.828Z,0
2023-04-04T01:31:20.429Z,0
2023-04-04T01:32:21.026Z,0
2023-04-04T01:33:21.630Z,0
2023-04-04T01:34:22.205Z,0
2023-04-04T01:35:22.794Z,0
2023-04-04T01:36:23.441Z,0
2023-04-04T01:37:24.008Z,0
2023-04-04T01:38:24.604Z,0
2023-04-04T01:39:25.193Z,0
2023-04-04T01:40:25.785Z,0
2023-04-04T01:41:26.378Z,0
2023-04-04T01:42:26.992Z,0
2023-04-04T01:43:27.582Z,0
2023-04-04T01:44:28.176Z,0
2023-04-04T01:45:28.768Z,0
2023-04-04T01:46:29.488Z,0
2023-04-04T01:47:30.007Z,0
2023-04-04T01:48:30.574Z,0
2023-04-04T01:49:31.165Z,0
2023-04-04T01:50:31.778Z,0
2023-04-04T01:51:32.386Z,0
2023-04-04T01:52:32.992Z,0
2023-04-04T01:53:33.578Z,0
2023-04-04T01:54:34.169Z,0
2023-04-04T01:55:34.781Z,0
2023-04-04T01:56:35.379Z,0
2023-04-04T01:57:35.968Z,0
2023-04-04T01:58:36.560Z,0
2023-04-04T01:59:37.152Z,0
2023-04-04T02:00:37.742Z,0
2023-04-04T02:01:38.391Z,0
2023-04-04T02:02:38.977Z,0
2023-04-04T02:03:39.582Z,0
2023-04-04T02:04:40.143Z,0
2023-04-04T02:05:40.748Z,0
2023-04-04T02:06:41.344Z,0
2023-04-04T02:07:41.985Z,0
2023-04-04T02:08:42.546Z,0
2023-04-04T02:09:43.147Z,0
2023-04-04T02:10:43.732Z,0
2023-04-04T02:11:44.326Z,0
2023-04-04T02:12:44.916Z,0
2023-04-04T02:13:45.510Z,0
2023-04-04T02:14:46.141Z,0
2023-04-04T02:15:46.764Z,0
2023-04-04T02:16:47.326Z,0
2023-04-04T02:17:47.928Z,0
2023-04-04T02:18:48.506Z,0
2023-04-04T02:19:49.120Z,0
2023-04-04T02:20:49.716Z,0
2023-04-04T02:21:50.302Z,0
2023-04-04T02:22:50.927Z,0
2023-04-04T02:23:51.487Z,0
2023-04-04T02:24:52.079Z,0
2023-04-04T02:25:52.668Z,0
2023-04-04T02:26:53.262Z,0
2023-04-04T02:27:53.856Z,0
2023-04-04T02:28:54.444Z,0
2023-04-04T02:29:55.057Z,0
2023-04-04T02:30:55.664Z,0
2023-04-04T02:31:56.223Z,0
2023-04-04T02:32:56.839Z,0
2023-04-04T02:33:57.414Z,0
2023-04-04T02:34:58.019Z,0
2023-04-04T02:35:58.640Z,0
2023-04-04T02:36:59.207Z,0
2023-04-04T02:37:59.798Z,0
2023-04-04T02:39:00.390Z,0
2023-04-04T02:40:00.987Z,0
2023-04-04T02:41:01.579Z,0
2023-04-04T02:42:02.189Z,0
2023-04-04T02:43:02.798Z,0
2023-04-04T02:44:03.395Z,0
2023-04-04T02:45:04.007Z,0
2023-04-04T02:46:14.397Z,0
2023-04-04T02:47:06.189Z,0
2023-04-04T02:48:06.790Z,0
2023-04-04T02:49:07.378Z,0
2023-04-04T02:50:07.971Z,0
2023-04-04T02:51:08.586Z,0
2023-04-04T02:52:09.184Z,0
2023-04-04T02:53:09.770Z,0
2023-04-04T02:54:10.371Z,0
2023-04-04T02:55:10.961Z,0
2023-04-04T02:56:11.550Z,0
2023-04-04T02:57:12.140Z,0
2023-04-04T02:58:12.736Z,0
2023-04-04T02:59:13.420Z,0
2023-04-04T03:00:13.981Z,0
2023-04-04T03:01:14.613Z,0
2023-04-04T03:02:15.279Z,0
2023-04-04T03:03:16.113Z,0
2023-04-04T03:04:16.738Z,0
2023-04-04T03:05:17.302Z,0
2023-04-04T03:06:17.911Z,0
2023-04-04T03:07:18.513Z,0
2023-04-04T03:08:19.103Z,0
2023-04-04T03:09:19.741Z,0
2023-04-04T03:10:20.333Z,0
2023-04-04T03:11:20.940Z,0
2023-04-04T03:12:21.531Z,0
2023-04-04T03:13:22.153Z,0
2023-04-04T03:14:22.728Z,0
2023-04-04T03:15:23.326Z,0
2023-04-04T03:16:23.967Z,0
2023-04-04T03:17:24.550Z,0
2023-04-04T03:18:25.114Z,0
2023-04-04T03:19:25.728Z,0
2023-04-04T03:20:26.341Z,0
2023-04-04T03:21:26.929Z,0
2023-04-04T03:22:27.525Z,0
2023-04-04T03:23:28.122Z,0
2023-04-04T03:24:28.709Z,0
2023-04-04T03:25:29.305Z,0
2023-04-04T03:26:29.894Z,0
2023-04-04T03:27:30.496Z,0
2023-04-04T03:28:31.099Z,0
2023-04-04T03:29:31.698Z,0
2023-04-04T03:30:32.303Z,0
2023-04-04T03:31:32.941Z,0
2023-04-04T03:32:33.574Z,0
2023-04-04T03:33:34.124Z,0
2023-04-04T03:34:34.711Z,0
2023-04-04T03:35:35.360Z,0
2023-04-04T03:36:35.907Z,0
2023-04-04T03:37:36.501Z,0
2023-04-04T03:38:37.096Z,0
2023-04-04T03:39:37.691Z,0
2023-04-04T03:40:38.327Z,0
2023-04-04T03:41:38.931Z,0
2023-04-04T03:42:39.522Z,0
2023-04-04T03:43:40.126Z,0
2023-04-04T03:44:40.729Z,0
2023-04-04T03:45:41.319Z,0
2023-04-04T03:46:41.894Z,0
2023-04-04T03:47:42.530Z,0
2023-04-04T03:48:43.114Z,0
2023-04-04T03:49:43.715Z,0
2023-04-04T03:50:44.290Z,0
2023-04-04T03:51:44.879Z,0
2023-04-04T03:52:45.491Z,0
2023-04-04T03:53:46.084Z,0
2023-04-04T03:54:46.702Z,0
2023-04-04T03:55:47.289Z,0
2023-04-04T03:56:47.976Z,0
2023-04-04T03:57:48.512Z,0
2023-04-04T03:58:49.234Z,0
2023-04-04T03:59:49.856Z,0
2023-04-04T04:00:50.457Z,0
2023-04-04T04:01:51.041Z,0
2023-04-04T04:02:51.670Z,0
2023-04-04T04:03:52.395Z,0
2023-04-04T04:04:53.000Z,0
2023-04-04T04:05:53.611Z,0
2023-04-04T04:06:54.189Z,0
2023-04-04T04:07:54.779Z,0
2023-04-04T04:08:55.392Z,0
2023-04-04T04:09:56.006Z,0
2023-04-04T04:10:56.580Z,0
2023-04-04T04:11:57.168Z,0
2023-04-04T04:12:57.763Z,0
2023-04-04T04:13:58.377Z,0
2023-04-04T04:14:58.969Z,0
2023-04-04T04:15:59.597Z,0
2023-04-04T04:17:00.142Z,0
2023-04-04T04:18:00.871Z,0
2023-04-04T04:19:01.471Z,0
2023-04-04T04:20:02.071Z,0
2023-04-04T04:21:02.673Z,0
2023-04-04T04:22:03.274Z,0
2023-04-04T04:23:03.863Z,0
2023-04-04T04:24:04.451Z,0
2023-04-04T04:25:05.044Z,0
2023-04-04T04:26:05.637Z,0
2023-04-04T04:27:06.237Z,0
2023-04-04T04:28:06.829Z,0
2023-04-04T04:29:07.438Z,0
2023-04-04T04:30:08.050Z,0
2023-04-04T04:31:08.716Z,0
2023-04-04T04:32:09.294Z,0
2023-04-04T04:33:09.891Z,0
2023-04-04T04:34:10.537Z,0
2023-04-04T04:35:11.099Z,0
2023-04-04T04:36:11.758Z,0
2023-04-04T04:37:12.350Z,0
2023-04-04T04:38:12.942Z,0
2023-04-04T04:39:13.538Z,0
2023-04-04T04:40:14.152Z,0
2023-04-04T04:41:14.744Z,0
2023-04-04T04:42:15.349Z,5
2023-04-04T04:43:15.967Z,5
2023-04-04T04:44:16.565Z,5
2023-04-04T04:45:17.160Z,5
2023-04-04T04:46:17.806Z,5
2023-04-04T04:47:18.584Z,5
2023-04-04T04:48:19.181Z,11
2023-04-04T04:49:19.886Z,11
2023-04-04T04:50:20.446Z,11
2023-04-04T04:51:21.062Z,11
2023-04-04T04:52:21.652Z,11
2023-04-04T04:53:22.253Z,16
2023-04-04T04:54:22.991Z,16
2023-04-04T04:55:23.615Z,16
2023-04-04T04:56:24.210Z,22
2023-04-04T04:57:24.805Z,22
2023-04-04T04:58:27.547Z,22
2023-04-04T04:59:26.065Z,22
2023-04-04T05:00:26.686Z,28
2023-04-04T05:01:27.334Z,28
2023-04-04T05:02:28.173Z,28
2023-04-04T05:03:28.815Z,33
2023-04-04T05:04:29.378Z,33
2023-04-04T05:05:29.977Z,39
2023-04-04T05:06:30.584Z,39
2023-04-04T05:07:31.164Z,45
2023-04-04T05:08:31.757Z,45
2023-04-04T05:09:32.353Z,50
2023-04-04T05:10:32.950Z,56
2023-04-04T05:11:33.550Z,56
2023-04-04T05:12:34.168Z,61
2023-04-04T05:13:34.780Z,61
2023-04-04T05:14:35.359Z,67
2023-04-04T05:15:35.977Z,67
2023-04-04T05:16:36.635Z,73
2023-04-04T05:17:37.213Z,73
2023-04-04T05:18:37.790Z,78
2023-04-04T05:19:38.404Z,84
2023-04-04T05:20:39.229Z,84
2023-04-04T05:21:39.989Z,90
2023-04-04T05:22:40.603Z,95
2023-04-04T05:23:41.200Z,95
2023-04-04T05:24:41.825Z,101
2023-04-04T05:25:42.407Z,106
2023-04-04T05:26:43.006Z,106
2023-04-04T05:27:43.623Z,112
2023-04-04T05:28:44.244Z,118
2023-04-04T05:29:44.840Z,118
2023-04-04T05:30:45.434Z,123
2023-04-04T05:31:46.070Z,129
2023-04-04T05:32:46.709Z,129
2023-04-04T05:33:47.267Z,135
2023-04-04T05:34:47.867Z,140
2023-04-04T05:35:48.647Z,140
2023-04-04T05:36:49.258Z,140
2023-04-04T05:37:49.859Z,140
2023-04-04T05:38:50.486Z,146
2023-04-04T05:39:51.090Z,146
2023-04-04T05:40:51.688Z,151
2023-04-04T05:41:52.295Z,151
2023-04-04T05:42:52.882Z,151
2023-04-04T05:43:53.486Z,157
2023-04-04T05:44:54.079Z,157
2023-04-04T05:45:54.726Z,163
2023-04-04T05:46:55.310Z,163
2023-04-04T05:47:55.954Z,168
2023-04-04T05:48:56.518Z,168
2023-04-04T05:49:57.131Z,174
2023-04-04T05:50:57.734Z,174
2023-04-04T05:51:58.331Z,174
2023-04-04T05:52:58.927Z,180
2023-04-04T05:53:59.535Z,180
2023-04-04T05:55:00.159Z,185
2023-04-04T05:56:00.738Z,185
2023-04-04T05:57:01.342Z,185
2023-04-04T05:58:01.935Z,191
2023-04-04T05:59:02.558Z,191
2023-04-04T06:00:03.243Z,196
2023-04-04T06:01:03.788Z,196
2023-04-04T06:02:04.391Z,202
2023-04-04T06:03:05.067Z,202
2023-04-04T06:04:05.628Z,202
2023-04-04T06:05:06.244Z,208
2023-04-04T06:06:06.898Z,208
2023-04-04T06:07:07.471Z,213
2023-04-04T06:08:08.077Z,213
2023-04-04T06:09:08.943Z,219
2023-04-04T06:10:09.531Z,219
2023-04-04T06:11:10.144Z,225
2023-04-04T06:12:10.769Z,230
2023-04-04T06:13:11.361Z,241
2023-04-04T06:14:13.918Z,247
2023-04-04T06:15:12.571Z,253
2023-04-04T06:16:13.205Z,270
2023-04-04T06:17:13.764Z,281
2023-04-04T06:18:14.375Z,292
2023-04-04T06:19:14.972Z,298
2023-04-04T06:20:15.564Z,303
2023-04-04T06:21:16.176Z,309
2023-04-04T06:22:16.773Z,315
2023-04-04T06:23:17.369Z,320
2023-04-04T06:24:17.968Z,326
2023-04-04T06:25:18.565Z,337
2023-04-04T06:26:19.177Z,348
2023-04-04T06:27:19.774Z,354
2023-04-04T06:28:20.374Z,365
2023-04-04T06:29:21.014Z,371
2023-04-04T06:30:21.588Z,376
2023-04-04T06:31:22.192Z,393
2023-04-04T06:32:22.905Z,405
2023-04-04T06:33:23.472Z,410
2023-04-04T06:34:24.077Z,416
2023-04-04T06:35:24.690Z,410
2023-04-04T06:36:25.332Z,410
2023-04-04T06:37:25.890Z,393
2023-04-04T06:38:26.488Z,382
2023-04-04T06:39:27.098Z,382
2023-04-04T06:40:27.699Z,382
2023-04-04T06:41:28.282Z,382
2023-04-04T06:42:28.906Z,399
2023-04-04T06:43:31.001Z,427
2023-04-04T06:44:31.089Z,444
2023-04-04T06:45:31.708Z,455
2023-04-04T06:46:32.348Z,461
2023-04-04T06:47:32.987Z,461
2023-04-04T06:48:33.548Z,472
2023-04-04T06:49:34.138Z,478
2023-04-04T06:50:34.737Z,483
2023-04-04T06:51:35.335Z,495
2023-04-04T06:52:37.819Z,495
2023-04-04T06:53:36.570Z,500
2023-04-04T06:54:37.152Z,506
2023-04-04T06:55:37.797Z,511
2023-04-04T06:56:38.361Z,511
2023-04-04T06:57:38.956Z,523
2023-04-04T06:58:39.557Z,528
2023-04-04T06:59:40.162Z,534
2023-04-04T07:00:41.041Z,545
2023-04-04T07:01:41.894Z,556
2023-04-04T07:02:42.567Z,562
2023-04-04T07:03:43.138Z,568
2023-04-04T07:04:43.738Z,568
2023-04-04T07:05:44.337Z,573
2023-04-04T07:06:44.941Z,551
2023-04-04T07:07:45.562Z,506
2023-04-04T07:08:46.171Z,500
2023-04-04T07:09:46.814Z,528
2023-04-04T07:10:47.403Z,641
2023-04-04T07:11:47.978Z,686
2023-04-04T07:12:48.598Z,748
2023-04-04T07:13:49.201Z,776
2023-04-04T07:14:49.798Z,821
2023-04-04T07:15:50.419Z,826
2023-04-04T07:16:51.086Z,849
2023-04-04T07:17:51.720Z,815
2023-04-04T07:18:52.271Z,826
2023-04-04T07:19:52.869Z,838
2023-04-04T07:20:53.488Z,843
2023-04-04T07:21:54.106Z,832
2023-04-04T07:22:54.732Z,843
2023-04-04T07:23:55.344Z,866
2023-04-04T07:24:55.963Z,877
2023-04-04T07:25:56.564Z,894
2023-04-04T07:26:57.167Z,916
2023-04-04T07:28:09.616Z,939
2023-04-04T07:28:59.359Z,961
2023-04-04T07:29:59.951Z,978
2023-04-04T07:31:00.558Z,990
2023-04-04T07:32:01.201Z,1006
2023-04-04T07:33:01.811Z,1023
2023-04-04T07:34:02.385Z,1046
2023-04-04T07:35:02.968Z,1057
2023-04-04T07:36:03.622Z,1063
2023-04-04T07:37:04.198Z,1080
2023-04-04T07:38:04.808Z,1108
2023-04-04T07:39:05.418Z,1130
2023-04-04T07:40:06.034Z,1153
2023-04-04T07:41:06.609Z,1175
2023-04-04T07:42:07.208Z,1203
2023-04-04T07:43:07.802Z,1237
2023-04-04T07:44:08.402Z,1254
2023-04-04T07:45:09.008Z,1271
2023-04-04T07:46:09.659Z,1282
2023-04-04T07:47:10.611Z,1288
2023-04-04T07:48:11.202Z,1310
2023-04-04T07:49:11.807Z,1321
2023-04-04T07:50:12.427Z,1316
2023-04-04T07:51:13.021Z,1344
2023-04-04T07:52:13.619Z,1366
2023-04-04T07:53:14.223Z,1378
2023-04-04T07:54:14.821Z,1395
2023-04-04T07:55:16.765Z,1411
2023-04-04T07:56:16.039Z,1428
2023-04-04T07:57:16.643Z,1440
2023-04-04T07:58:17.241Z,1462
2023-04-04T07:59:17.912Z,1468
2023-04-04T08:00:18.465Z,1485
2023-04-04T08:01:19.062Z,1496
2023-04-04T08:02:19.720Z,1518
2023-04-04T08:03:20.476Z,1541
2023-04-04T08:04:21.128Z,1569
2023-04-04T08:05:21.703Z,1586
2023-04-04T08:06:22.298Z,1608
2023-04-04T08:07:22.896Z,1614
2023-04-04T08:08:23.497Z,1648
2023-04-04T08:09:24.107Z,1676
2023-04-04T08:10:24.732Z,1726
2023-04-04T08:11:25.320Z,1788
2023-04-04T08:12:25.915Z,1845
2023-04-04T08:13:26.542Z,1878
2023-04-04T08:14:27.133Z,1912
2023-04-04T08:15:27.744Z,1906
2023-04-04T08:16:28.386Z,1906
2023-04-04T08:17:28.984Z,1878
2023-04-04T08:18:29.560Z,1856
2023-04-04T08:19:30.158Z,1867
2023-04-04T08:20:30.761Z,1878
2023-04-04T08:21:31.362Z,1873
2023-04-04T08:22:31.957Z,1845
2023-04-04T08:23:32.578Z,1828
2023-04-04T08:24:33.156Z,1811
2023-04-04T08:25:33.757Z,1816
2023-04-04T08:26:34.363Z,1833
2023-04-04T08:27:34.956Z,1867
2023-04-04T08:28:35.617Z,1912
2023-04-04T08:29:36.167Z,1974
2023-04-04T08:30:36.807Z,2008
2023-04-04T08:31:37.437Z,2019
2023-04-04T08:32:38.058Z,2019
2023-04-04T08:34:40.222Z,2064
2023-04-04T08:35:40.891Z,2098
2023-04-04T08:36:41.441Z,2115
2023-04-04T08:37:42.047Z,2131
2023-04-04T08:38:42.696Z,2171
2023-04-04T08:39:43.261Z,2193
2023-04-04T08:40:43.875Z,2227
2023-04-04T08:41:44.474Z,2311
2023-04-04T08:42:45.076Z,2385
2023-04-04T08:43:45.676Z,2368
2023-04-04T08:44:46.303Z,2356
2023-04-04T08:45:46.969Z,2311
2023-04-04T08:46:47.590Z,2300
2023-04-04T08:47:48.273Z,2272
2023-04-04T08:48:48.835Z,2233
2023-04-04T08:49:49.452Z,2182
2023-04-04T08:50:50.058Z,2137
2023-04-04T08:51:50.659Z,2103
2023-04-04T08:52:51.262Z,2109
2023-04-04T08:53:51.885Z,2126
2023-04-04T08:54:52.481Z,2143
2023-04-04T08:55:53.104Z,2137
2023-04-04T08:56:53.704Z,2148
2023-04-04T08:57:54.306Z,2160
2023-04-04T08:58:55.011Z,2199
2023-04-04T08:59:55.681Z,2227
2023-04-04T09:00:56.301Z,2244
2023-04-04T09:01:57.002Z,2351
2023-04-04T09:02:58.154Z,2452
2023-04-04T09:03:58.385Z,2503
2023-04-04T09:05:06.262Z,2542
2023-04-04T09:06:00.403Z,2565
2023-04-04T09:07:01.025Z,2559
2023-04-04T09:08:01.642Z,2536
2023-04-04T09:09:02.252Z,2525
2023-04-04T09:10:02.843Z,2486
2023-04-04T09:11:03.491Z,2401
2023-04-04T09:12:04.061Z,2311
2023-04-04T09:13:14.528Z,2261
2023-04-04T09:14:06.250Z,2300
2023-04-04T09:15:06.865Z,2407
2023-04-04T09:16:07.481Z,2593
2023-04-04T09:17:08.072Z,2767
2023-04-04T09:18:08.668Z,2930
2023-04-04T09:19:09.269Z,3060
2023-04-04T09:20:09.887Z,3150
2023-04-04T09:21:10.509Z,3161
2023-04-04T09:22:11.128Z,3127
2023-04-04T09:23:11.735Z,3060
2023-04-04T09:24:12.328Z,2964
2023-04-04T09:25:12.930Z,2868
2023-04-04T09:26:13.529Z,2778
2023-04-04T09:27:14.132Z,2773
2023-04-04T09:28:14.729Z,2806
2023-04-04T09:29:15.327Z,2902
2023-04-04T09:30:15.927Z,3009
2023-04-04T09:31:16.528Z,3099
2023-04-04T09:32:17.261Z,3110
2023-04-04T09:33:17.866Z,3110
2023-04-04T09:34:18.461Z,3088
2023-04-04T09:35:19.063Z,3076
2023-04-04T09:36:19.725Z,3043
2023-04-04T09:37:20.271Z,3003
2023-04-04T09:38:20.933Z,2986
2023-04-04T09:39:21.596Z,2936
2023-04-04T09:40:22.272Z,2840
2023-04-04T09:41:22.838Z,2756
2023-04-04T09:42:23.457Z,2733
2023-04-04T09:43:24.104Z,2688
2023-04-04T09:44:24.709Z,2655
2023-04-04T09:45:31.941Z,2716
2023-04-04T09:46:26.926Z,2812
2023-04-04T09:47:31.176Z,2953
2023-04-04T09:48:29.039Z,3065
2023-04-04T09:49:29.588Z,3116
2023-04-04T09:50:30.207Z,3099
2023-04-04T09:51:30.809Z,3093
2023-04-04T09:52:31.410Z,3099
2023-04-04T09:53:32.012Z,3093
2023-04-04T09:54:33.069Z,3076
2023-04-04T09:55:33.631Z,3065
2023-04-04T09:56:34.235Z,3065
2023-04-04T09:57:34.851Z,3003
2023-04-04T09:58:35.460Z,2913
2023-04-04T09:59:36.093Z,2863
2023-04-04T10:00:36.727Z,2857
2023-04-04T10:01:37.401Z,2851
2023-04-04T10:02:38.076Z,2868
2023-04-04T10:03:38.660Z,2941
2023-04-04T10:04:39.258Z,2958
2023-04-04T10:05:39.858Z,3020
2023-04-04T10:06:40.458Z,3105
2023-04-04T10:07:41.067Z,3166
2023-04-04T10:08:41.735Z,3228
2023-04-04T10:09:42.331Z,3268
2023-04-04T10:10:42.931Z,3234
2023-04-04T10:11:43.537Z,3240
2023-04-04T10:12:44.156Z,3223
2023-04-04T10:13:44.824Z,3155
2023-04-04T10:14:45.393Z,3099
2023-04-04T10:15:46.074Z,3138
2023-04-04T10:16:46.732Z,3268
2023-04-04T10:17:47.370Z,3358
2023-04-04T10:18:47.968Z,3414
2023-04-04T10:19:48.569Z,3465
2023-04-04T10:20:49.170Z,1659
2023-04-04T10:21:49.770Z,3386
2023-04-04T10:22:50.391Z,3352
2023-04-04T10:23:51.102Z,1473
2023-04-04T10:24:51.651Z,1119
2023-04-04T10:25:52.252Z,1991
2023-04-04T10:26:52.853Z,3330
2023-04-04T10:27:53.455Z,3633
2023-04-04T10:28:54.057Z,3802
2023-04-04T10:29:54.680Z,3931
2023-04-04T10:31:05.756Z,3999
2023-04-04T10:31:58.270Z,3915
2023-04-04T10:32:58.456Z,1665
2023-04-04T10:33:59.047Z,1636
2023-04-04T10:34:59.641Z,2885
2023-04-04T10:36:00.270Z,1023
2023-04-04T10:37:00.840Z,1153
2023-04-04T10:38:01.441Z,1237
2023-04-04T10:39:02.053Z,3706
2023-04-04T10:40:02.670Z,3555
2023-04-04T10:41:03.272Z,3510
2023-04-04T10:42:03.884Z,3510
2023-04-04T10:43:04.473Z,3498
2023-04-04T10:44:05.068Z,3515
2023-04-04T10:45:19.459Z,3673
2023-04-04T10:46:06.317Z,3881
2023-04-04T10:47:06.888Z,4083
2023-04-04T10:48:09.994Z,4151
2023-04-04T10:49:09.083Z,4128
2023-04-04T10:50:09.699Z,4241
2023-04-04T10:51:10.305Z,4100
2023-04-04T10:52:10.905Z,4314
2023-04-04T10:53:11.501Z,4162
2023-04-04T10:54:12.111Z,3954
2023-04-04T10:55:12.698Z,3532
2023-04-04T10:56:13.318Z,3453
2023-04-04T10:57:13.922Z,3459
2023-04-04T10:58:14.549Z,3436
2023-04-04T10:59:15.268Z,3341
2023-04-04T11:00:15.783Z,3397
2023-04-04T11:01:16.430Z,3420
2023-04-04T11:02:17.032Z,3504
2023-04-04T11:03:17.635Z,3566
2023-04-04T11:04:20.730Z,3622
2023-04-04T11:05:19.830Z,3588
2023-04-04T11:06:20.431Z,3605
2023-04-04T11:07:21.062Z,3650
2023-04-04T11:08:21.675Z,3718
2023-04-04T11:09:22.278Z,3808
2023-04-04T11:10:22.881Z,3825
2023-04-04T11:11:23.979Z,3825
2023-04-04T11:12:24.601Z,3875
2023-04-04T11:13:25.209Z,3915
2023-04-04T11:14:25.807Z,3948
2023-04-04T11:15:26.417Z,3937
2023-04-04T11:16:27.021Z,3965
2023-04-04T11:17:27.683Z,3943
2023-04-04T11:18:33.314Z,3999
2023-04-04T11:19:29.872Z,4123
2023-04-04T11:20:30.474Z,4111
2023-04-04T11:21:31.078Z,4089
2023-04-04T11:22:31.680Z,4072
2023-04-04T11:23:32.280Z,3993
2023-04-04T11:24:32.902Z,3903
2023-04-04T11:25:33.506Z,3836
2023-04-04T11:26:34.105Z,3836
2023-04-04T11:27:34.766Z,3836
2023-04-04T11:28:35.361Z,3836
2023-04-04T11:29:35.958Z,3735
2023-04-04T11:30:36.572Z,3690
2023-04-04T11:31:37.193Z,3712
2023-04-04T11:32:37.823Z,3740
2023-04-04T11:33:38.389Z,3796
2023-04-04T11:34:39.004Z,3898
2023-04-04T11:35:39.831Z,3881
2023-04-04T11:36:40.584Z,3937
2023-04-04T11:37:41.217Z,3971
2023-04-04T11:38:41.821Z,3718
2023-04-04T11:39:42.427Z,3555
2023-04-04T11:40:43.053Z,3555
2023-04-04T11:41:43.635Z,3808
2023-04-04T11:42:44.240Z,3515
2023-04-04T11:43:44.842Z,3268
2023-04-04T11:44:45.447Z,3481
2023-04-04T11:45:46.084Z,3532
2023-04-04T11:46:47.273Z,3296
2023-04-04T11:47:48.258Z,3661
2023-04-04T11:48:48.849Z,3706
2023-04-04T11:49:49.470Z,3785
2023-04-04T11:50:50.111Z,3864
2023-04-04T11:51:50.673Z,3639
2023-04-04T11:52:53.354Z,4010
2023-04-04T11:53:51.891Z,4252
2023-04-04T11:54:52.551Z,4342
2023-04-04T11:55:53.123Z,4365
2023-04-04T11:56:53.736Z,4320
2023-04-04T11:57:54.341Z,4190
2023-04-04T11:59:08.617Z,4061
2023-04-04T11:59:56.551Z,4021
2023-04-04T12:00:57.141Z,4246
2023-04-04T12:01:57.738Z,4443
2023-04-04T12:02:58.436Z,3943
2023-04-04T12:03:58.952Z,3695
2023-04-04T12:04:59.752Z,4145
2023-04-04T12:06:00.263Z,2986
2023-04-04T12:07:00.835Z,2778
2023-04-04T12:08:01.434Z,4078
2023-04-04T12:09:02.036Z,4353
2023-04-04T12:10:02.637Z,4269
2023-04-04T12:11:03.239Z,4162
2023-04-04T12:12:03.856Z,3870
2023-04-04T12:13:04.447Z,3363
2023-04-04T12:14:05.059Z,3386
2023-04-04T12:15:16.555Z,3470
2023-04-04T12:16:06.341Z,3774
2023-04-04T12:17:06.900Z,4055
2023-04-04T12:18:07.588Z,4179
2023-04-04T12:19:08.111Z,2998
2023-04-04T12:20:08.711Z,3476
2023-04-04T12:21:09.315Z,3836
2023-04-04T12:22:09.924Z,4010
2023-04-04T12:23:10.547Z,3825
2023-04-04T12:24:11.136Z,3746
2023-04-04T12:25:11.735Z,3335
2023-04-04T12:26:12.336Z,3633
2023-04-04T12:27:12.940Z,3875
2023-04-04T12:28:13.564Z,3594
2023-04-04T12:29:14.167Z,3076
2023-04-04T12:30:14.775Z,2739
2023-04-04T12:31:15.384Z,3785
2023-04-04T12:32:15.991Z,4809
2023-04-04T12:33:16.591Z,4488
2023-04-04T12:34:17.193Z,4106
2023-04-04T12:35:17.796Z,3870
2023-04-04T12:36:18.422Z,3650
2023-04-04T12:37:19.023Z,3943
2023-04-04T12:38:19.608Z,3650
2023-04-04T12:39:20.208Z,3386
2023-04-04T12:40:20.822Z,3988
2023-04-04T12:41:21.434Z,3993
2023-04-04T12:42:22.035Z,3673
2023-04-04T12:43:22.667Z,3723
2023-04-04T12:44:23.279Z,3684
2023-04-04T12:45:23.881Z,3915
2023-04-04T12:46:24.545Z,2745
2023-04-04T12:47:25.240Z,3600
2023-04-04T12:48:25.903Z,4100
2023-04-04T12:49:26.508Z,4111
2023-04-04T12:50:27.110Z,4021
2023-04-04T12:51:27.727Z,3774
2023-04-04T12:52:28.329Z,3858
2023-04-04T12:53:30.086Z,3830
2023-04-04T12:54:30.576Z,3819
2023-04-04T12:55:31.123Z,3470
2023-04-04T12:56:31.750Z,3718
2023-04-04T12:57:32.324Z,3667
2023-04-04T12:58:34.907Z,3403
2023-04-04T12:59:34.592Z,3088
2023-04-04T13:00:35.145Z,2328
2023-04-04T13:01:35.767Z,2947
2023-04-04T13:02:36.424Z,3020
2023-04-04T13:03:36.990Z,2306
2023-04-04T13:04:37.643Z,2761
2023-04-04T13:05:38.290Z,2880
2023-04-04T13:06:38.883Z,3155
2023-04-04T13:07:39.474Z,2891
2023-04-04T13:08:40.067Z,2626
2023-04-04T13:09:40.674Z,3960
2023-04-04T13:10:41.281Z,4128
2023-04-04T13:11:41.873Z,4325
2023-04-04T13:12:42.498Z,4320
2023-04-04T13:13:43.125Z,4010
2023-04-04T13:14:43.708Z,3695
2023-04-04T13:15:44.315Z,3903
2023-04-04T13:16:44.936Z,4061
2023-04-04T13:17:45.564Z,4168
2023-04-04T13:18:46.134Z,4201
2023-04-04T13:19:46.738Z,4145
2023-04-04T13:20:47.339Z,3965
2023-04-04T13:21:47.938Z,4027
2023-04-04T13:22:48.540Z,3954
2023-04-04T13:23:49.139Z,3948
2023-04-04T13:24:49.741Z,3976
2023-04-04T13:25:50.363Z,3988
2023-04-04T13:26:50.946Z,3943
2023-04-04T13:27:51.547Z,3915
2023-04-04T13:28:52.173Z,3976
2023-04-04T13:29:52.790Z,4100
2023-04-04T13:30:53.460Z,4275
2023-04-04T13:31:54.010Z,4224
2023-04-04T13:32:54.655Z,4033
2023-04-04T13:33:55.261Z,3954
2023-04-04T13:34:55.866Z,3960
2023-04-04T13:35:56.455Z,3993
2023-04-04T13:36:57.101Z,3948
2023-04-04T13:37:57.663Z,3931
2023-04-04T13:38:58.293Z,3881
2023-04-04T13:39:58.880Z,3875
2023-04-04T13:40:59.483Z,3605
2023-04-04T13:42:00.153Z,3965
2023-04-04T13:43:00.701Z,3701
2023-04-04T13:44:01.306Z,2981
2023-04-04T13:45:01.913Z,2784
2023-04-04T13:46:02.560Z,2761
2023-04-04T13:47:03.113Z,2469
2023-04-04T13:48:03.755Z,2407
2023-04-04T13:49:04.340Z,3746
2023-04-04T13:50:04.944Z,3352
2023-04-04T13:51:05.538Z,2131
2023-04-04T13:52:06.139Z,2868
2023-04-04T13:53:06.753Z,3740
2023-04-04T13:54:07.357Z,3841
2023-04-04T13:55:07.963Z,4156
2023-04-04T13:57:10.153Z,3498
2023-04-04T13:58:10.769Z,3408
2023-04-04T13:59:11.430Z,3808
2023-04-04T14:00:12.017Z,3971
2023-04-04T14:01:12.661Z,4134
2023-04-04T14:02:13.253Z,4089
2023-04-04T14:03:13.904Z,4089
2023-04-04T14:04:23.340Z,4111